Time;durP1;ratioP1;P1;durP2;ratioP2;P2;SDS_P1;SDS_P2;PMS_P1;PMS_P2;Temp;Humidity;BMP_temperature;BMP_pressure;BME280_temperature;BME280_humidity;BME280_pressure;Samples;Min_cycle;Max_cycle;Signal;HPM_P1;HPM_P2
2022/04/16 00:00:58;;;;;;;8.57;6.63;;;;;;;7.51;71.07;102314.44;5031568;28;20045;-23
2022/04/16 00:03:24;;;;;;;8.80;6.93;;;;;;;7.49;70.53;102309.13;5012779;28;20079;-24
2022/04/16 00:05:54;;;;;;;14.35;7.35;;;;;;;7.48;71.06;102319.59;5036280;28;20025;-24
2022/04/16 00:08:21;;;;;;;9.63;6.82;;;;;;;7.47;70.92;102321.31;5032163;28;20391;-23
2022/04/16 00:10:47;;;;;;;9.25;6.97;;;;;;;7.46;71.05;102326.53;5037872;28;20060;-23
2022/04/16 00:13:14;;;;;;;7.90;6.40;;;;;;;7.42;71.20;102321.19;5048000;28;20052;-24
2022/04/16 00:15:40;;;;;;;9.75;6.40;;;;;;;7.42;71.33;102325.53;5045395;28;20032;-23
2022/04/16 00:18:05;;;;;;;8.27;5.80;;;;;;;7.41;70.98;102324.63;5041716;28;20034;-23
2022/04/16 00:20:31;;;;;;;8.90;6.03;;;;;;;7.41;71.20;102326.38;5047624;28;20035;-23
2022/04/16 00:22:57;;;;;;;7.68;5.95;;;;;;;7.38;70.79;102326.28;5041446;28;20057;-23
2022/04/16 00:25:23;;;;;;;8.88;6.45;;;;;;;7.38;70.61;102321.03;5044239;28;20025;-23
2022/04/16 00:27:49;;;;;;;7.88;6.53;;;;;;;7.35;70.76;102323.56;5044995;28;20535;-24
2022/04/16 00:30:17;;;;;;;7.50;6.13;;;;;;;7.32;70.96;102322.66;5043415;28;20068;-23
2022/04/16 00:32:44;;;;;;;6.53;5.63;;;;;;;7.34;70.58;102324.41;5029671;28;20025;-23
2022/04/16 00:35:09;;;;;;;7.43;6.28;;;;;;;7.30;70.85;102319.06;5028576;28;20040;-24
2022/04/16 00:37:35;;;;;;;7.25;6.22;;;;;;;7.28;70.97;102312.00;5030607;28;20034;-23
2022/04/16 00:40:00;;;;;;;8.93;5.95;;;;;;;7.28;70.91;102314.63;5033588;28;20470;-23
2022/04/16 00:42:32;;;;;;;8.27;6.05;;;;;;;7.26;70.87;102327.69;5039975;28;20029;-24
2022/04/16 00:44:57;;;;;;;;;;;;;;;7.27;70.87;102331.22;5041644;28;20021;-23
2022/04/16 00:47:22;;;;;;;7.57;6.05;;;;;;;7.24;70.97;102328.50;5046037;28;19979;-23
2022/04/16 00:49:48;;;;;;;7.28;5.85;;;;;;;7.22;70.71;102325.81;5042044;28;20181;-23
2022/04/16 00:52:14;;;;;;;5.28;4.78;;;;;;;7.21;71.08;102329.28;5047287;28;20494;-23
2022/04/16 00:54:40;;;;;;;8.10;5.20;;;;;;;7.19;70.57;102331.88;5045465;28;20029;-23
2022/04/16 00:57:05;;;;;;;5.70;5.18;;;;;;;7.18;70.84;102334.44;5038775;28;20037;-23
2022/04/16 00:59:31;;;;;;;6.80;5.25;;;;;;;7.17;70.89;102332.66;5043389;28;20032;-25
2022/04/16 01:01:59;;;;;;;9.38;5.90;;;;;;;7.16;70.74;102336.09;5042976;28;20021;-24
2022/04/16 01:04:25;;;;;;;7.90;5.38;;;;;;;7.15;70.51;102334.34;5048046;28;20356;-25
2022/04/16 01:06:50;;;;;;;5.18;4.78;;;;;;;7.14;70.53;102337.81;5043669;28;20025;-24
2022/04/16 01:09:16;;;;;;;4.97;4.47;;;;;;;7.12;70.51;102329.88;5039358;28;20032;-24
2022/04/16 01:11:43;;;;;;;6.63;5.10;;;;;;;7.12;70.76;102342.09;5044598;28;20079;-24
2022/04/16 01:14:09;;;;;;;6.47;5.25;;;;;;;7.10;70.41;102341.19;5041508;28;20036;-25
2022/04/16 01:16:35;;;;;;;6.13;4.63;;;;;;;7.09;70.92;102335.03;5043076;28;20036;-25
2022/04/16 01:19:01;;;;;;;7.55;4.97;;;;;;;7.06;70.61;102335.81;5044568;28;20024;-24
2022/04/16 01:21:27;;;;;;;8.38;5.28;;;;;;;7.05;70.80;102328.81;5047255;28;20082;-24
2022/04/16 01:23:53;;;;;;;5.30;4.80;;;;;;;7.05;70.01;102347.16;5029582;28;20029;-24
2022/04/16 01:26:18;;;;;;;5.68;4.63;;;;;;;7.03;70.41;102342.69;5029360;28;20021;-24
2022/04/16 01:28:44;;;;;;;5.88;4.70;;;;;;;7.00;70.24;102340.88;5029166;28;20048;-24
2022/04/16 01:31:10;;;;;;;5.68;5.07;;;;;;;6.99;70.05;102339.09;5037377;28;20032;-24
2022/04/16 01:33:35;;;;;;;4.57;4.07;;;;;;;6.98;70.57;102342.56;5044429;28;20049;-25
2022/04/16 01:36:01;;;;;;;5.68;4.63;;;;;;;6.95;70.41;102337.22;5041833;28;20024;-24
2022/04/16 01:38:26;;;;;;;5.35;3.75;;;;;;;6.96;70.39;102344.22;5045634;28;20027;-23
2022/04/16 01:40:56;;;;;;;4.20;3.83;;;;;;;6.95;70.15;102346.78;5038219;28;20029;-23
2022/04/16 01:43:22;;;;;;;6.40;3.97;;;;;;;6.92;69.92;102345.88;5033804;28;20556;-23
2022/04/16 01:45:49;;;;;;;4.45;3.92;;;;;;;6.91;70.36;102341.44;5028884;28;20590;-23
2022/04/16 01:48:16;;;;;;;6.32;4.28;;;;;;;6.89;70.15;102347.50;5030605;28;20116;-23
2022/04/16 01:50:41;;;;;;;4.82;3.50;;;;;;;6.88;70.00;102348.34;5030071;28;20034;-23
2022/04/16 01:53:07;;;;;;;6.00;4.25;;;;;;;6.86;69.79;102352.63;5039749;28;20471;-23
2022/04/16 01:55:32;;;;;;;3.72;3.42;;;;;;;6.85;69.75;102356.09;5043167;28;20038;-23
2022/04/16 01:57:58;;;;;;;3.90;3.40;;;;;;;6.83;69.94;102352.53;5041586;28;20039;-24
2022/04/16 02:00:23;;;;;;;4.20;3.80;;;;;;;6.80;69.46;102358.56;5040841;28;20403;-24
2022/04/16 02:02:49;;;;;;;4.50;4.05;;;;;;;6.77;69.92;102369.84;5040708;28;20025;-25
2022/04/16 02:05:14;;;;;;;3.72;3.42;;;;;;;6.74;69.58;102364.47;5050115;28;20017;-24
2022/04/16 02:07:40;;;;;;;3.65;3.30;;;;;;;6.72;69.59;102360.94;5058344;28;20017;-24
2022/04/16 02:10:06;;;;;;;4.50;3.85;;;;;;;6.68;69.58;102364.28;5057362;28;20029;-23
2022/04/16 02:12:31;;;;;;;4.47;3.85;;;;;;;6.67;69.28;102363.38;5062802;28;20029;-24
2022/04/16 02:14:57;;;;;;;4.32;3.92;;;;;;;6.64;69.23;102363.28;5060764;28;20032;-24
2022/04/16 02:17:23;;;;;;;7.10;4.25;;;;;;;6.59;69.73;102371.81;5050268;28;20775;-24
2022/04/16 02:19:48;;;;;;;4.03;3.13;;;;;;;6.57;69.36;102373.53;5045695;28;20048;-24
2022/04/16 02:22:15;;;;;;;4.63;3.40;;;;;;;6.52;69.19;102379.50;5043838;28;20075;-24
2022/04/16 02:24:41;;;;;;;6.25;4.15;;;;;;;6.49;69.41;102384.63;5045615;28;20124;-24
2022/04/16 02:27:07;;;;;;;3.97;3.35;;;;;;;6.45;69.18;102384.44;5043686;28;20518;-24
2022/04/16 02:29:34;;;;;;;3.10;2.88;;;;;;;6.42;69.10;102382.63;5046561;28;20146;-24
2022/04/16 02:32:03;;;;;;;5.07;3.47;;;;;;;6.37;68.80;102384.19;5044352;28;20036;-24
2022/04/16 02:34:28;;;;;;;4.45;3.08;;;;;;;6.33;68.53;102383.16;5043054;28;20504;-24
2022/04/16 02:36:54;;;;;;;5.07;3.53;;;;;;;6.31;69.02;102389.19;5042170;28;20041;-24
2022/04/16 02:39:19;;;;;;;2.88;2.60;;;;;;;6.24;69.46;102396.81;5032785;28;20037;-24
2022/04/16 02:41:45;;;;;;;4.00;2.95;;;;;;;6.21;69.27;102404.59;5036867;28;20022;-24
2022/04/16 02:47:13;;;;;;;3.30;3.00;;;;;;;6.11;68.81;102408.56;5032813;28;20490;-24
2022/04/16 02:49:39;;;;;;;3.63;2.97;;;;;;;6.04;69.11;102401.34;5033241;28;20029;-24
2022/04/16 02:52:06;;;;;;;3.83;3.22;;;;;;;6.00;69.04;102405.53;5041290;28;20024;-24
2022/04/16 02:54:32;;;;;;;3.90;2.83;;;;;;;5.97;69.12;102394.94;5042312;28;20032;-23
2022/04/16 02:56:57;;;;;;;4.10;3.20;;;;;;;5.93;68.19;102400.88;5040517;28;20390;-23
2022/04/16 02:59:23;;;;;;;5.03;4.05;;;;;;;5.88;68.89;102407.69;5036338;28;20029;-23
2022/04/16 03:01:49;;;;;;;5.60;3.25;;;;;;;5.84;68.88;102408.41;5028504;28;20045;-23
2022/04/16 03:04:14;;;;;;;4.38;2.95;;;;;;;5.79;68.69;102416.06;5030675;28;20033;-23
2022/04/16 03:06:40;;;;;;;3.88;3.47;;;;;;;5.74;68.46;102410.66;5025813;28;20630;-23
2022/04/16 03:09:05;;;;;;;3.00;2.80;;;;;;;5.70;68.29;102418.34;5034124;28;20704;-23
2022/04/16 03:11:31;;;;;;;3.88;3.03;;;;;;;5.67;68.34;102429.56;5039136;28;20102;-23
2022/04/16 03:17:31;;;;;;;3.17;2.80;;;;;;;5.64;68.97;102429.47;5039985;28;20021;-23
2022/04/16 03:19:26;;;;;;;3.22;2.85;;;;;;;5.55;68.48;102436.94;5037876;28;20083;-23
2022/04/16 03:21:51;;;;;;;3.55;3.25;;;;;;;5.48;68.54;102431.47;5024947;28;20021;-23
2022/04/16 03:24:18;;;;;;;5.07;3.08;;;;;;;5.46;68.65;102433.13;5029633;28;20033;-23
2022/04/16 03:26:43;;;;;;;4.32;3.17;;;;;;;5.40;68.50;102448.56;5025654;28;20028;-23
2022/04/16 03:29:09;;;;;;;2.60;2.40;;;;;;;5.37;68.28;102451.97;5034698;28;20026;-23
2022/04/16 03:31:34;;;;;;;3.20;2.38;;;;;;;5.30;68.44;102452.53;5043294;28;20025;-23
2022/04/16 03:33:59;;;;;;;4.60;2.95;;;;;;;5.28;68.73;102458.53;5038330;28;20422;-23
2022/04/16 03:36:25;;;;;;;3.90;2.83;;;;;;;5.23;68.80;102463.56;5042981;28;20394;-23
2022/04/16 03:38:50;;;;;;;3.17;2.78;;;;;;;5.18;68.71;102457.25;5042669;28;20225;-23
2022/04/16 03:41:16;;;;;;;3.28;3.00;;;;;;;5.13;68.47;102472.75;5041725;28;20661;-23
2022/04/16 03:43:41;;;;;;;2.85;2.65;;;;;;;5.09;68.64;102473.44;5048606;28;20032;-23
2022/04/16 03:46:07;;;;;;;2.83;2.60;;;;;;;5.05;68.48;102476.78;5047470;28;20021;-23
2022/04/16 03:48:32;;;;;;;3.03;2.33;;;;;;;5.03;68.70;102486.28;5048757;28;20032;-23
2022/04/16 03:50:58;;;;;;;3.30;3.00;;;;;;;4.96;68.27;102488.63;5039097;28;20056;-23
2022/04/16 03:53:23;;;;;;;3.58;2.70;;;;;;;4.91;68.83;102484.94;5045573;28;20475;-23
2022/04/16 04:01:16;;;;;;;4.57;2.78;;;;;;;4.78;68.78;102500.88;5038855;28;20040;-23
2022/04/16 04:03:42;;;;;;;6.85;2.95;;;;;;;4.73;68.15;102511.13;5047159;28;20021;-23
2022/04/16 04:06:07;;;;;;;2.25;2.10;;;;;;;4.68;68.84;102508.34;5043824;28;20108;-23
2022/04/16 04:08:33;;;;;;;3.03;2.72;;;;;;;4.63;68.40;102520.28;5038150;28;20022;-23
2022/04/16 04:10:59;;;;;;;3.25;2.92;;;;;;;4.61;68.85;102516.72;5034196;28;20108;-23
2022/04/16 04:13:25;;;;;;;4.00;2.45;;;;;;;4.56;68.59;102518.22;5031990;28;20112;-23
2022/04/16 04:15:51;;;;;;;3.22;2.80;;;;;;;4.50;68.51;102518.81;5031586;28;20076;-23
2022/04/16 04:18:17;;;;;;;5.68;4.45;;;;;;;4.47;68.99;102519.59;5032137;28;20025;-23
2022/04/16 04:20:42;;;;;;;4.57;4.07;;;;;;;4.42;68.67;102521.09;5033103;28;20475;-23
2022/04/16 04:23:08;;;;;;;7.53;6.63;;;;;;;4.39;68.56;102518.34;5045227;28;20025;-23
2022/04/16 04:25:33;;;;;;;11.80;8.55;;;;;;;4.36;68.93;102515.56;5038727;28;20037;-23
2022/04/16 04:27:59;;;;;;;9.35;7.60;;;;;;;4.32;68.26;102524.09;5045407;28;20025;-23
2022/04/16 04:30:24;;;;;;;10.45;7.80;;;;;;;4.29;68.90;102529.16;5046503;28;20257;-23
2022/04/16 04:32:49;;;;;;;16.67;11.55;;;;;;;4.25;68.87;102530.75;5045706;28;20030;-23
2022/04/16 04:35:15;;;;;;;15.20;12.60;;;;;;;4.22;68.73;102528.91;5045255;28;20086;-23
2022/04/16 04:37:41;;;;;;;16.50;13.68;;;;;;;4.21;69.13;102527.09;5043222;28;20033;-23
2022/04/16 04:40:07;;;;;;;13.82;12.38;;;;;;;4.16;69.22;102528.59;5039694;28;20025;-23
2022/04/16 04:42:34;;;;;;;13.90;12.27;;;;;;;4.16;69.17;102530.31;5037272;28;20423;-23
2022/04/16 04:45:05;;;;;;;13.75;10.80;;;;;;;4.09;69.69;102536.97;5046027;28;20025;-23
2022/04/16 04:47:31;;;;;;;10.02;9.00;;;;;;;4.10;69.32;102523.97;5041452;28;20017;-23
2022/04/16 04:49:56;;;;;;;14.05;10.35;;;;;;;4.09;69.43;102516.06;5044522;28;20367;-23
2022/04/16 04:52:26;;;;;;;11.75;9.63;;;;;;;4.08;69.54;102514.28;5038513;28;20053;-23
2022/04/16 04:54:59;;;;;;;11.13;8.65;;;;;;;4.08;69.69;102519.50;5038439;28;20506;-21
2022/04/16 04:57:25;;;;;;;11.00;8.80;;;;;;;4.05;69.42;102532.41;5038634;28;20083;-21
2022/04/16 04:59:51;;;;;;;9.18;8.05;;;;;;;4.04;69.93;102530.63;5037882;28;20573;-22
2022/04/16 05:02:16;;;;;;;8.35;7.22;;;;;;;4.06;69.32;102521.13;5042132;28;20127;-21
2022/04/16 05:04:42;;;;;;;9.13;8.02;;;;;;;4.05;69.60;102529.81;5028013;28;20287;-21
2022/04/16 05:07:09;;;;;;;8.52;6.80;;;;;;;4.04;69.88;102538.47;5034460;28;20021;-21
2022/04/16 05:09:35;;;;;;;9.85;6.72;;;;;;;4.03;69.99;102539.31;5033016;28;20573;-22
2022/04/16 05:12:01;;;;;;;7.35;5.43;;;;;;;4.03;69.83;102541.91;5038926;28;20033;-22
2022/04/16 05:14:26;;;;;;;6.38;5.00;;;;;;;4.04;69.70;102543.69;5034129;28;20598;-22
2022/04/16 05:16:52;;;;;;;6.82;4.95;;;;;;;4.05;69.85;102548.09;5041636;28;20036;-22
2022/04/16 05:19:17;;;;;;;6.68;5.45;;;;;;;4.03;70.03;102547.13;5040916;28;20430;-22
2022/04/16 05:21:43;;;;;;;6.10;4.82;;;;;;;4.04;70.15;102556.75;5040998;28;20482;-22
2022/04/16 05:24:09;;;;;;;5.20;4.10;;;;;;;4.05;69.93;102558.53;5040974;28;20017;-21
2022/04/16 05:26:35;;;;;;;5.00;4.50;;;;;;;4.04;70.28;102560.22;5038175;28;20498;-21
2022/04/16 05:29:01;;;;;;;4.43;4.03;;;;;;;4.05;69.99;102563.75;5042038;28;20033;-21
2022/04/16 05:31:27;;;;;;;4.57;3.90;;;;;;;4.06;69.88;102570.75;5032622;28;20056;-25
2022/04/16 05:36:38;;;;;;;4.05;3.63;;;;;;;4.08;70.48;102572.66;5036744;28;20036;-22
2022/04/16 05:39:03;;;;;;;5.63;3.67;;;;;;;4.09;70.06;102565.69;5033268;28;20022;-21
2022/04/16 05:41:29;;;;;;;4.68;4.00;;;;;;;4.10;70.34;102567.47;5036979;28;20550;-21
2022/04/16 05:43:55;;;;;;;4.10;3.15;;;;;;;4.13;70.48;102565.00;5038952;28;20108;-22
2022/04/16 05:46:20;;;;;;;8.20;3.65;;;;;;;4.13;70.25;102564.13;5034876;28;20040;-27
2022/04/16 05:48:45;;;;;;;4.25;3.30;;;;;;;4.13;70.56;102575.47;5032272;28;20025;-21
2022/04/16 05:51:12;;;;;;;3.83;3.53;;;;;;;4.15;70.55;102576.44;5015834;28;20083;-21
2022/04/16 05:53:37;;;;;;;4.18;3.67;;;;;;;4.16;70.09;102585.16;5029761;28;20032;-21
2022/04/16 05:56:03;;;;;;;4.00;3.05;;;;;;;4.16;70.15;102588.69;5031113;28;20403;-21
2022/04/16 05:58:29;;;;;;;4.20;3.22;;;;;;;4.18;69.97;102589.66;5029501;28;20033;-22
2022/04/16 06:00:55;;;;;;;4.80;3.38;;;;;;;4.19;69.90;102594.06;5029583;28;20029;-23
2022/04/16 06:03:21;;;;;;;3.00;2.80;;;;;;;4.21;69.98;102589.78;5033740;28;20029;-22
2022/04/16 06:05:47;;;;;;;3.50;3.20;;;;;;;4.22;69.85;102585.47;5026209;28;20074;-22
2022/04/16 06:08:13;;;;;;;3.78;3.30;;;;;;;4.24;70.34;102600.38;5023847;28;20025;-23
2022/04/16 06:10:38;;;;;;;3.08;2.78;;;;;;;4.24;69.92;102600.38;5031898;28;20040;-23
2022/04/16 06:13:04;;;;;;;3.97;3.38;;;;;;;4.28;69.90;102590.09;5034648;28;20037;-23
2022/04/16 06:15:31;;;;;;;2.83;2.63;;;;;;;4.28;70.08;102597.94;5035651;28;20098;-21
2022/04/16 06:17:57;;;;;;;3.55;2.97;;;;;;;4.31;69.75;102596.38;5024326;28;20116;-21
2022/04/16 06:20:23;;;;;;;3.70;3.40;;;;;;;4.33;69.85;102593.81;5030387;28;20021;-21
2022/04/16 06:22:49;;;;;;;3.45;2.97;;;;;;;4.34;70.01;102598.22;5031526;28;20434;-21
2022/04/16 06:25:15;;;;;;;4.47;3.10;;;;;;;4.37;69.96;102601.00;5036191;28;20063;-22
2022/04/16 06:27:40;;;;;;;3.50;3.20;;;;;;;4.38;70.11;102605.38;5043601;28;20414;-23
2022/04/16 06:30:08;;;;;;;5.82;3.15;;;;;;;4.40;69.81;102606.34;5040160;28;20039;-23
2022/04/16 06:32:34;;;;;;;3.72;2.95;;;;;;;4.41;69.94;102602.94;5039398;28;20379;-23
2022/04/16 06:35:00;;;;;;;3.85;2.78;;;;;;;4.44;69.50;102607.41;5032555;28;20290;-23
2022/04/16 06:37:26;;;;;;;7.47;3.50;;;;;;;4.44;70.10;102608.28;5038842;28;20026;-23
2022/04/16 06:39:51;;;;;;;4.25;3.65;;;;;;;4.48;70.16;102615.47;5024870;28;20029;-23
2022/04/16 06:42:17;;;;;;;4.10;3.13;;;;;;;4.50;69.71;102615.50;5036351;28;20070;-23
2022/04/16 06:44:42;;;;;;;3.75;3.45;;;;;;;4.52;69.57;102620.81;5037319;28;20116;-23
2022/04/16 06:47:07;;;;;;;4.00;3.53;;;;;;;4.54;69.56;102613.94;5037286;28;20044;-23
2022/04/16 06:49:33;;;;;;;3.88;3.58;;;;;;;4.55;69.45;102616.66;5040083;28;20025;-23
2022/04/16 06:51:58;;;;;;;4.93;3.90;;;;;;;4.56;69.65;102618.44;5030950;28;20018;-23
2022/04/16 06:54:24;;;;;;;5.85;4.32;;;;;;;4.59;69.49;102628.13;5031209;28;20030;-23
2022/04/16 06:56:49;;;;;;;4.70;4.30;;;;;;;4.62;69.33;102641.34;5029528;28;20029;-23
2022/04/16 06:59:15;;;;;;;5.22;3.90;;;;;;;4.63;68.88;102640.50;5031697;28;20143;-23
2022/04/16 07:01:40;;;;;;;5.97;4.55;;;;;;;4.66;69.65;102645.88;5035368;28;20017;-23
2022/04/16 07:04:05;;;;;;;6.45;4.32;;;;;;;4.68;69.35;102627.66;5044918;28;20053;-23
2022/04/16 07:06:31;;;;;;;5.03;4.55;;;;;;;4.70;68.98;102637.38;5044329;28;20028;-23
2022/04/16 07:08:56;;;;;;;4.82;4.32;;;;;;;4.74;69.36;102638.44;5038462;28;20025;-23
2022/04/16 07:11:22;;;;;;;5.63;5.18;;;;;;;4.77;68.94;102642.91;5041417;28;20042;-23
2022/04/16 07:13:47;;;;;;;5.47;4.43;;;;;;;4.80;69.30;102643.91;5033559;28;20383;-23
2022/04/16 07:16:13;;;;;;;5.22;4.35;;;;;;;4.83;69.39;102648.38;5034004;28;20419;-23
2022/04/16 07:18:38;;;;;;;6.22;4.53;;;;;;;4.85;68.90;102641.53;5032583;28;20029;-23
2022/04/16 07:21:04;;;;;;;5.18;4.50;;;;;;;4.90;69.45;102646.97;5037944;28;20112;-23
2022/04/16 07:23:29;;;;;;;6.15;5.00;;;;;;;4.94;69.34;102659.38;5023409;28;20037;-23
2022/04/16 07:25:56;;;;;;;5.65;5.00;;;;;;;4.97;69.32;102655.16;5038239;28;20033;-23
2022/04/16 07:28:21;;;;;;;5.18;4.68;;;;;;;5.01;69.43;102654.47;5032069;28;20034;-23
2022/04/16 07:30:50;;;;;;;5.65;4.95;;;;;;;5.04;68.95;102651.13;5030319;28;20032;-23
2022/04/16 07:33:17;;;;;;;5.78;5.18;;;;;;;5.09;69.23;102656.56;5042796;28;20403;-23
2022/04/16 07:35:42;;;;;;;4.47;4.18;;;;;;;5.14;69.11;102660.28;5046669;28;20493;-23
2022/04/16 07:38:08;;;;;;;5.13;4.63;;;;;;;5.18;69.34;102658.69;5042878;28;20025;-23
2022/04/16 07:40:34;;;;;;;5.47;4.80;;;;;;;5.21;68.83;102658.84;5040466;28;20029;-23
2022/04/16 07:43:00;;;;;;;6.82;5.68;;;;;;;5.23;68.82;102654.56;5039445;28;20018;-23
2022/04/16 07:45:26;;;;;;;5.25;4.75;;;;;;;5.29;68.58;102665.31;5034348;28;20032;-23
2022/04/16 07:47:51;;;;;;;5.65;5.13;;;;;;;5.31;68.06;102661.06;5030390;28;20033;-23
2022/04/16 07:50:17;;;;;;;6.05;5.50;;;;;;;5.36;68.91;102661.22;5033677;28;20036;-23
2022/04/16 07:52:46;;;;;;;5.68;4.40;;;;;;;5.41;68.74;102656.22;5032246;28;20021;-23
2022/04/16 07:55:12;;;;;;;6.70;5.35;;;;;;;5.44;68.88;102675.56;5040232;28;20078;-24
2022/04/16 07:57:37;;;;;;;6.07;4.82;;;;;;;5.48;68.18;102663.50;5028650;28;20018;-23
2022/04/16 08:00:08;;;;;;;6.30;4.75;;;;;;;5.51;68.79;102677.63;5032278;28;20696;-23
2022/04/16 08:02:34;;;;;;;7.05;5.00;;;;;;;5.56;68.41;102669.06;5034812;28;20028;-24
2022/04/16 08:04:59;;;;;;;5.90;5.35;;;;;;;5.61;68.19;102678.03;5034626;28;20021;-24
2022/04/16 08:07:25;;;;;;;5.13;4.63;;;;;;;5.65;68.23;102674.72;5031669;28;20044;-24
2022/04/16 08:09:50;;;;;;;5.78;5.07;;;;;;;5.71;68.04;102674.09;5032352;28;20494;-23
2022/04/16 08:12:16;;;;;;;6.68;5.15;;;;;;;5.77;67.65;102672.63;5033602;28;20084;-23
2022/04/16 08:14:42;;;;;;;5.57;5.00;;;;;;;5.80;67.99;102668.38;5035239;28;20075;-24
2022/04/16 08:17:08;;;;;;;5.20;4.70;;;;;;;5.89;68.20;102677.50;5044183;28;20060;-24
2022/04/16 08:19:33;;;;;;;5.32;4.80;;;;;;;5.97;67.74;102669.97;5044561;28;20025;-23
2022/04/16 08:21:58;;;;;;;5.57;4.70;;;;;;;6.02;68.24;102668.44;5032185;28;20028;-24
2022/04/16 08:26:52;;;;;;;5.50;5.00;;;;;;;6.16;68.10;102669.06;5029676;28;20051;-23
2022/04/16 08:29:17;;;;;;;6.05;5.60;;;;;;;6.23;68.18;102670.19;5031164;28;20026;-23
2022/04/16 08:31:43;;;;;;;7.18;4.65;;;;;;;6.32;67.90;102672.31;5030887;28;20468;-23
2022/04/16 08:34:09;;;;;;;4.97;4.57;;;;;;;6.38;67.42;102674.28;5029545;28;20100;-23
2022/04/16 08:36:34;;;;;;;5.45;4.90;;;;;;;6.50;67.74;102673.91;5030174;28;20026;-23
2022/04/16 08:39:00;;;;;;;6.20;4.90;;;;;;;6.56;67.35;102676.75;5032312;28;20396;-23
2022/04/16 08:41:25;;;;;;;4.80;4.40;;;;;;;6.68;67.41;102673.72;5031385;28;20452;-23
2022/04/16 08:43:52;;;;;;;5.60;5.18;;;;;;;6.79;68.23;102675.03;5029080;28;20013;-23
2022/04/16 08:46:18;;;;;;;4.72;4.32;;;;;;;6.91;68.04;102687.72;5030512;28;20387;-23
2022/04/16 08:48:44;;;;;;;6.03;5.40;;;;;;;7.04;67.70;102681.22;5028486;28;20022;-23
2022/04/16 08:51:09;;;;;;;5.00;4.60;;;;;;;7.17;66.85;102690.44;5030441;28;20025;-23
2022/04/16 08:53:35;;;;;;;5.88;5.15;;;;;;;7.28;66.49;102690.88;5029090;28;20064;-24
2022/04/16 08:56:00;;;;;;;5.72;4.88;;;;;;;7.37;66.26;102689.41;5028925;28;20401;-23
2022/04/16 08:58:26;;;;;;;5.55;5.10;;;;;;;7.47;66.03;102686.25;5030353;28;20021;-23
2022/04/16 09:00:51;;;;;;;4.90;4.50;;;;;;;7.57;65.73;102680.50;5029283;28;20025;-23
2022/04/16 09:03:16;;;;;;;4.97;4.30;;;;;;;7.67;65.65;102689.59;5031532;28;20130;-23
2022/04/16 09:05:42;;;;;;;6.30;4.68;;;;;;;7.77;65.51;102687.31;5030485;28;20021;-23
2022/04/16 09:08:08;;;;;;;5.05;4.55;;;;;;;7.87;65.66;102691.16;5031494;28;20024;-23
2022/04/16 09:10:36;;;;;;;4.97;4.45;;;;;;;7.96;65.33;102687.13;5029888;28;20043;-23
2022/04/16 09:13:03;;;;;;;5.30;4.85;;;;;;;8.06;64.95;102687.41;5030303;28;20490;-23
2022/04/16 09:15:30;;;;;;;4.97;4.57;;;;;;;8.15;64.83;102685.13;5028947;28;20029;-24
2022/04/16 09:18:17;;;;;;;4.85;4.45;;;;;;;8.24;64.32;102689.78;5028919;28;20030;-24
2022/04/16 09:20:43;;;;;;;5.40;4.40;;;;;;;8.33;64.22;102690.06;5023734;28;20063;-24
2022/04/16 09:23:19;;;;;;;8.60;4.68;;;;;;;8.43;64.21;102685.09;5039310;28;20025;-24
2022/04/16 09:25:44;;;;;;;4.53;4.22;;;;;;;8.50;64.11;102688.84;5046160;28;20533;-24
2022/04/16 09:28:10;;;;;;;4.95;4.38;;;;;;;8.56;63.72;102692.59;5041084;28;20041;-24
2022/04/16 09:30:38;;;;;;;4.63;4.32;;;;;;;8.65;63.04;102680.56;5026810;28;20040;-24
2022/04/16 09:33:06;;;;;;;4.65;4.28;;;;;;;8.74;63.10;102686.13;5047468;28;20036;-24
2022/04/16 09:35:36;;;;;;;5.20;4.70;;;;;;;8.80;62.99;102675.78;5032158;28;20515;-24
2022/04/16 09:38:03;;;;;;;4.25;3.95;;;;;;;8.93;63.29;102681.41;5036135;28;20025;-24
2022/04/16 09:40:31;;;;;;;4.97;4.47;;;;;;;9.00;62.99;102683.38;5036471;28;20027;-24
2022/04/16 09:42:58;;;;;;;4.53;4.13;;;;;;;9.09;63.28;102683.66;5030276;28;20072;-24
2022/04/16 09:45:24;;;;;;;4.45;4.15;;;;;;;9.18;63.06;102688.31;5025812;28;20105;-24
2022/04/16 09:47:51;;;;;;;4.93;4.50;;;;;;;9.27;62.87;102681.53;5036598;28;20099;-25
2022/04/16 09:50:25;;;;;;;5.53;5.00;;;;;;;9.38;62.49;102680.09;5037551;28;20060;-24
2022/04/16 09:52:53;;;;;;;4.20;3.90;;;;;;;9.50;62.50;102684.78;5033349;28;20107;-24
2022/04/16 09:55:20;;;;;;;4.40;4.10;;;;;;;9.58;62.60;102688.56;5031599;28;20045;-24
2022/04/16 09:57:51;;;;;;;5.47;4.57;;;;;;;9.70;62.38;102692.38;5033882;28;20034;-24
2022/04/16 10:00:17;;;;;;;4.43;3.97;;;;;;;9.80;62.24;102697.03;5028688;28;20391;-24
2022/04/16 10:02:43;;;;;;;4.53;4.13;;;;;;;9.91;62.19;102692.06;5035981;28;20036;-24
2022/04/16 10:05:09;;;;;;;4.25;3.85;;;;;;;10.00;62.29;102691.38;5027718;28;20029;-24
2022/04/16 10:07:36;;;;;;;4.85;4.38;;;;;;;10.11;61.99;102691.66;5032469;28;20037;-24
2022/04/16 10:10:06;;;;;;;5.00;4.50;;;;;;;10.20;61.80;102702.44;5038607;28;20127;-24
2022/04/16 10:15:21;;;;;;;4.93;4.53;;;;;;;10.41;60.89;102703.84;5026931;28;20064;-24
2022/04/16 10:17:50;;;;;;;4.95;4.55;;;;;;;10.45;60.79;102691.63;5038437;28;20033;-24
2022/04/16 10:20:17;;;;;;;4.68;3.95;;;;;;;10.59;60.97;102697.22;5038697;28;20040;-24
2022/04/16 10:22:56;;;;;;;4.63;4.18;;;;;;;10.70;60.09;102692.22;5033522;28;20060;-24
2022/04/16 10:25:41;;;;;;;5.25;4.75;;;;;;;10.81;60.15;102696.00;5036572;28;20030;-24
2022/04/16 10:28:08;;;;;;;6.45;4.32;;;;;;;10.90;59.98;102693.53;5036809;28;20060;-24
2022/04/16 10:30:39;;;;;;;4.65;4.18;;;;;;;10.99;59.83;102678.75;5031827;28;20025;-24
2022/04/16 10:33:23;;;;;;;5.00;4.60;;;;;;;11.12;59.83;102685.19;5034184;28;20057;-24
2022/04/16 10:35:57;;;;;;;4.53;4.10;;;;;;;11.27;59.75;102685.50;5033504;28;20288;-24
2022/04/16 10:38:32;;;;;;;4.80;4.35;;;;;;;11.39;59.56;102695.44;5038206;28;20560;-24
2022/04/16 10:41:02;;;;;;;6.45;4.53;;;;;;;11.47;59.58;102684.13;5035996;28;20033;-24
2022/04/16 10:43:32;;;;;;;4.07;3.78;;;;;;;11.58;59.21;102693.16;5042514;28;20112;-24
2022/04/16 10:46:05;;;;;;;4.03;3.75;;;;;;;11.67;58.98;102682.75;5034490;28;20033;-24
2022/04/16 10:48:32;;;;;;;4.28;3.97;;;;;;;11.81;58.71;102684.78;5043826;28;20031;-24
2022/04/16 10:50:59;;;;;;;5.22;4.10;;;;;;;11.93;58.67;102684.06;5043751;28;20478;-24
2022/04/16 10:53:35;;;;;;;4.40;3.88;;;;;;;12.02;58.53;102701.88;5039213;28;20033;-24
2022/04/16 10:56:13;;;;;;;4.10;3.58;;;;;;;12.15;58.62;102701.25;5039249;28;20124;-24
2022/04/16 10:58:44;;;;;;;4.30;3.90;;;;;;;12.28;58.46;102690.88;5033438;28;20095;-24
2022/04/16 11:01:10;;;;;;;4.25;3.85;;;;;;;12.37;58.36;102683.06;5036883;28;20029;-24
2022/04/16 11:03:56;;;;;;;6.22;4.00;;;;;;;12.48;58.12;102691.19;5035626;28;20507;-24
2022/04/16 11:06:32;;;;;;;3.67;3.38;;;;;;;12.57;58.27;102691.31;5045044;28;20123;-24
2022/04/16 11:08:58;;;;;;;5.38;3.97;;;;;;;12.63;57.75;102692.25;5029762;28;20479;-24
2022/04/16 11:11:23;;;;;;;3.97;3.67;;;;;;;12.66;57.08;102693.22;5043283;28;20322;-24
2022/04/16 11:13:49;;;;;;;4.43;3.63;;;;;;;12.69;56.76;102695.00;5028713;28;20390;-24
2022/04/16 11:16:21;;;;;;;4.45;4.05;;;;;;;12.75;56.34;102681.88;5032249;28;20025;-24
2022/04/16 11:18:47;;;;;;;4.32;3.92;;;;;;;12.82;56.12;102677.53;5043007;28;20124;-24
2022/04/16 11:21:20;;;;;;;3.75;3.45;;;;;;;12.93;56.49;102675.03;5030818;28;20032;-24
2022/04/16 11:23:48;;;;;;;4.68;4.28;;;;;;;12.92;56.46;102679.47;5027549;28;20033;-24
2022/04/16 11:34:39;;;;;;;3.83;3.53;;;;;;;13.14;55.02;102674.41;5037161;28;20041;-24
2022/04/16 11:37:06;;;;;;;4.07;3.78;;;;;;;13.19;55.09;102679.78;5036134;28;20025;-24
2022/04/16 11:39:32;;;;;;;4.10;3.80;;;;;;;13.23;55.18;102686.03;5037382;28;20024;-24
2022/04/16 11:41:59;;;;;;;4.35;4.05;;;;;;;13.28;55.10;102681.66;5042072;28;20017;-24
2022/04/16 11:44:32;;;;;;;3.90;3.60;;;;;;;13.33;55.33;102682.59;5040818;28;20032;-24
2022/04/16 11:46:59;;;;;;;3.67;3.45;;;;;;;13.40;54.83;102680.91;5032867;28;20021;-24
2022/04/16 11:49:25;;;;;;;4.20;3.80;;;;;;;13.50;55.09;102687.25;5040647;28;20039;-24
2022/04/16 11:51:51;;;;;;;4.13;3.60;;;;;;;13.54;54.41;102689.06;5038765;28;20033;-24
2022/04/16 11:54:28;;;;;;;5.30;4.25;;;;;;;13.54;54.19;102678.44;5039742;28;20025;-24
2022/04/16 11:56:55;;;;;;;4.03;3.70;;;;;;;13.60;54.70;102675.84;5037313;28;20057;-25